WetterOnline ( https://www.wetteronline.de )

Wetter aktuell Böhmisch-Leipa

Aktuelles Wetter: Milesovka (836m)

6-stündlich | Neueste Meldungen
Ortszeit Temperatur Wetter
Sa, 25.01. 7:00 -3.5° C leicht bewölkt
Sa, 25.01. 1:00 -3.0° C leicht bewölkt
Fr, 24.01. 19:00 -5.3° C Nebel mit Raueis
Fr, 24.01. 13:00 -4.3° C Nebel mit Raueis
Fr, 24.01. 7:00 -5.4° C Nebel mit Raueis
Fr, 24.01. 1:00 -4.7° C Nebel mit Raueis
Do, 23.01. 19:00 -4.1° C fast wolkenlos
Do, 23.01. 13:00 -0.7° C bewölkt
Ortszeit Temperatur Wetter
Sa, 25.01. 12:00 1.8° C fast wolkenlos
Sa, 25.01. 11:00 -1.8° C fast wolkenlos
Sa, 25.01. 10:00 -3.6° C fast wolkenlos
Sa, 25.01. 9:00 -3.3° C leicht bewölkt
Sa, 25.01. 8:00 -3.3° C leicht bewölkt
Sa, 25.01. 7:00 -3.5° C leicht bewölkt
Ortszeit Relative Feuchte Sichtweite
Sa, 25.01. 7:00 97% 35 km
Sa, 25.01. 1:00 98% 20 km
Fr, 24.01. 19:00 97% <100 m
Fr, 24.01. 13:00 97% 100 m
Fr, 24.01. 7:00 97% <100 m
Fr, 24.01. 1:00 98% 0.3 km
Do, 23.01. 19:00 98% 20 km
Do, 23.01. 13:00 85% 25 km
Ortszeit Relative Feuchte Sichtweite
Sa, 25.01. 12:00 80% 50 km
Sa, 25.01. 11:00 84% 45 km
Sa, 25.01. 10:00 93% 45 km
Sa, 25.01. 9:00 95% 40 km
Sa, 25.01. 8:00 96% 40 km
Sa, 25.01. 7:00 97% 35 km
Ortszeit Niederschlagsmenge Niederschlagsart
Sa, 25.01. 7:00 0.0 l/m2 in 12 Std. Nebel
Sa, 25.01. 1:00 0.0 l/m2 in 6 Std. Nebel
Fr, 24.01. 19:00 0.0 l/m2 in 12 Std. Nebel
Fr, 24.01. 13:00 0.0 l/m2 in 6 Std. Nebel
Fr, 24.01. 7:00 0.0 l/m2 in 12 Std. Nebel
Fr, 24.01. 1:00 0.0 l/m2 in 6 Std. Nebel
Do, 23.01. 19:00 0.0 l/m2 in 12 Std. -
Do, 23.01. 13:00 0.0 l/m2 in 6 Std. -
Ortszeit Niederschlagsmenge Niederschlagsart
Sa, 25.01. 12:00 keine Meldung -
Sa, 25.01. 11:00 keine Meldung -
Sa, 25.01. 10:00 keine Meldung -
Sa, 25.01. 9:00 keine Meldung -
Sa, 25.01. 8:00 keine Meldung -
Sa, 25.01. 7:00 keine Meldung -
Ortszeit Stärke Spitze Richtung
km/h Bft. km/h Grad Sektor
Sa, 25.01. 7:00 22 4 - 300° NW
Sa, 25.01. 1:00 18 3 - 270° W
Fr, 24.01. 19:00 7 2 - 230° SW
Fr, 24.01. 13:00 7 2 - 200° S
Fr, 24.01. 7:00 14 3 - 180° S
Fr, 24.01. 1:00 14 3 - 150° SO
Do, 23.01. 19:00 29 5 - 150° SO
Do, 23.01. 13:00 14 3 - 190° S
Ortszeit Stärke Spitze Richtung
km/h Bft. km/h Grad Sektor
Sa, 25.01. 12:00 18 3 - 280° W
Sa, 25.01. 11:00 18 3 - 270° W
Sa, 25.01. 10:00 18 3 - 270° W
Sa, 25.01. 9:00 14 3 - 260° W
Sa, 25.01. 8:00 18 3 - 300° NW
Sa, 25.01. 7:00 22 4 - 300° NW
Ortszeit Untergrenze Bedeckung Gattung
total tief tief mittel hoch
Sa, 25.01. 7:00 3000 m 2/8 2/8 - Ac Ci
Sa, 25.01. 1:00 3300 m 2/8 2/8 - Ac Ci
Fr, 24.01. 19:00 30 m - - - - -
Fr, 24.01. 13:00 30 m - - - - -
Fr, 24.01. 7:00 30 m - - - - -
Fr, 24.01. 1:00 - 8/8 - - - -
Do, 23.01. 19:00 150 m 1/8 1/8 Sc As -
Do, 23.01. 13:00 240 m 7/8 7/8 Sc - -
Ortszeit Bedeckungsgrad in Achtel und Wolkenuntergrenze
Sa, 25.01. 12:00 1(7200m)
Sa, 25.01. 11:00 1(3300m)
Sa, 25.01. 10:00 1(3300m)
Sa, 25.01. 9:00 1(3300m)
Sa, 25.01. 8:00 1(3300m)
Sa, 25.01. 7:00 2(3000m) 7(7200m)
Ortszeit Stationsdruck (hPa) Tendenz (hPa in 3 Std.)
Sa, 25.01. 7:00 921 + 0,1
Sa, 25.01. 1:00 922 - 0,5
Fr, 24.01. 19:00 922 + 0,1
Fr, 24.01. 13:00 923 - 0,7
Fr, 24.01. 7:00 924 - 0,7
Fr, 24.01. 1:00 927 - 1,4
Do, 23.01. 19:00 929 - 1,7
Do, 23.01. 13:00 932 - 1,6
Ortszeit Stationsdruck (hPa) Tendenz (hPa in 3 Std.)
Sa, 25.01. 12:00 922 + 0,4
Sa, 25.01. 11:00 923 + 1,2
Sa, 25.01. 10:00 922 + 0,9
Sa, 25.01. 9:00 922 + 0,9
Sa, 25.01. 8:00 921 + 0,4
Sa, 25.01. 7:00 921 + 0,1
Ortszeit Schneehöhe (cm)
Sa, 25.01. 7:00 0
Sa, 25.01. 1:00 -
Fr, 24.01. 19:00 0
Fr, 24.01. 13:00 -
Fr, 24.01. 7:00 0
Fr, 24.01. 1:00 -
Do, 23.01. 19:00 -
Do, 23.01. 13:00 -
Ortszeit Schneehöhe (cm)
Sa, 25.01. 12:00 -
Sa, 25.01. 11:00 -
Sa, 25.01. 10:00 -
Sa, 25.01. 9:00 -
Sa, 25.01. 8:00 -
Sa, 25.01. 7:00 0
Link zu dieser Seite / Seite empfehlen

Das Wetter in ...